sensor_id;sensor_type;location;lat;lon;timestamp;temperature;humidity
15713;DHT22;7957;51.608;6.916;2023-07-22T00:02:15;16.50;99.90
15713;DHT22;7957;51.608;6.916;2023-07-22T00:04:42;16.50;99.90
15713;DHT22;7957;51.608;6.916;2023-07-22T00:07:12;16.50;99.90
15713;DHT22;7957;51.608;6.916;2023-07-22T00:09:41;16.50;99.90
15713;DHT22;7957;51.608;6.916;2023-07-22T00:12:09;16.50;99.90
15713;DHT22;7957;51.608;6.916;2023-07-22T00:14:38;16.50;99.90
15713;DHT22;7957;51.608;6.916;2023-07-22T00:17:05;16.50;99.90
15713;DHT22;7957;51.608;6.916;2023-07-22T00:19:35;16.50;99.90
15713;DHT22;7957;51.608;6.916;2023-07-22T00:22:02;16.50;99.90
15713;DHT22;7957;51.608;6.916;2023-07-22T00:24:29;16.50;99.90
15713;DHT22;7957;51.608;6.916;2023-07-22T00:26:57;16.50;99.90
15713;DHT22;7957;51.608;6.916;2023-07-22T00:29:24;16.50;99.90
15713;DHT22;7957;51.608;6.916;2023-07-22T00:31:51;16.50;99.90
15713;DHT22;7957;51.608;6.916;2023-07-22T00:34:18;16.50;99.90
15713;DHT22;7957;51.608;6.916;2023-07-22T00:36:46;16.50;99.90
15713;DHT22;7957;51.608;6.916;2023-07-22T00:39:13;16.40;99.90
15713;DHT22;7957;51.608;6.916;2023-07-22T00:41:40;16.40;99.90
15713;DHT22;7957;51.608;6.916;2023-07-22T00:44:09;16.40;99.90
15713;DHT22;7957;51.608;6.916;2023-07-22T00:46:37;16.40;99.90
15713;DHT22;7957;51.608;6.916;2023-07-22T00:49:05;16.40;99.90
15713;DHT22;7957;51.608;6.916;2023-07-22T00:51:33;16.40;99.90
15713;DHT22;7957;51.608;6.916;2023-07-22T00:54:01;16.40;99.90
15713;DHT22;7957;51.608;6.916;2023-07-22T00:56:33;16.40;99.90
15713;DHT22;7957;51.608;6.916;2023-07-22T00:59:02;16.40;99.90
15713;DHT22;7957;51.608;6.916;2023-07-22T01:01:29;16.40;99.90
15713;DHT22;7957;51.608;6.916;2023-07-22T01:03:56;16.40;99.90
15713;DHT22;7957;51.608;6.916;2023-07-22T01:06:23;16.40;99.90
15713;DHT22;7957;51.608;6.916;2023-07-22T01:08:51;16.40;99.90
15713;DHT22;7957;51.608;6.916;2023-07-22T01:11:19;16.30;99.90
15713;DHT22;7957;51.608;6.916;2023-07-22T01:13:46;16.30;99.90
15713;DHT22;7957;51.608;6.916;2023-07-22T01:16:13;16.30;99.90
15713;DHT22;7957;51.608;6.916;2023-07-22T01:18:40;16.30;99.90
15713;DHT22;7957;51.608;6.916;2023-07-22T01:21:08;16.30;99.90
15713;DHT22;7957;51.608;6.916;2023-07-22T01:23:38;16.30;99.90
15713;DHT22;7957;51.608;6.916;2023-07-22T01:26:05;16.30;99.90
15713;DHT22;7957;51.608;6.916;2023-07-22T01:28:35;16.30;99.90
15713;DHT22;7957;51.608;6.916;2023-07-22T01:31:02;16.30;99.90
15713;DHT22;7957;51.608;6.916;2023-07-22T01:33:30;16.30;99.90
15713;DHT22;7957;51.608;6.916;2023-07-22T01:35:58;16.30;99.90
15713;DHT22;7957;51.608;6.916;2023-07-22T01:38:24;16.20;99.90
15713;DHT22;7957;51.608;6.916;2023-07-22T01:40:53;16.20;99.90
15713;DHT22;7957;51.608;6.916;2023-07-22T01:43:20;16.20;99.90
15713;DHT22;7957;51.608;6.916;2023-07-22T01:45:47;16.20;99.90
15713;DHT22;7957;51.608;6.916;2023-07-22T01:48:13;16.20;1.00
15713;DHT22;7957;51.608;6.916;2023-07-22T01:50:40;16.20;1.00
15713;DHT22;7957;51.608;6.916;2023-07-22T01:53:07;16.20;1.00
15713;DHT22;7957;51.608;6.916;2023-07-22T01:55:34;16.20;1.00
15713;DHT22;7957;51.608;6.916;2023-07-22T01:58:04;16.20;1.00
15713;DHT22;7957;51.608;6.916;2023-07-22T02:00:30;16.20;1.00
15713;DHT22;7957;51.608;6.916;2023-07-22T02:02:57;16.20;1.00
15713;DHT22;7957;51.608;6.916;2023-07-22T02:05:24;16.20;1.00
15713;DHT22;7957;51.608;6.916;2023-07-22T02:07:52;16.20;1.00
15713;DHT22;7957;51.608;6.916;2023-07-22T02:10:20;16.10;1.00
15713;DHT22;7957;51.608;6.916;2023-07-22T02:12:47;16.20;1.00
15713;DHT22;7957;51.608;6.916;2023-07-22T02:15:16;16.10;1.00
15713;DHT22;7957;51.608;6.916;2023-07-22T02:17:43;16.10;1.00
15713;DHT22;7957;51.608;6.916;2023-07-22T02:20:10;16.10;1.00
15713;DHT22;7957;51.608;6.916;2023-07-22T02:22:38;16.20;1.00
15713;DHT22;7957;51.608;6.916;2023-07-22T02:25:06;16.20;1.00
15713;DHT22;7957;51.608;6.916;2023-07-22T02:27:35;16.10;1.00
15713;DHT22;7957;51.608;6.916;2023-07-22T02:30:03;16.10;1.00
15713;DHT22;7957;51.608;6.916;2023-07-22T02:32:32;16.10;1.00
15713;DHT22;7957;51.608;6.916;2023-07-22T02:34:59;16.20;1.00
15713;DHT22;7957;51.608;6.916;2023-07-22T02:37:25;16.10;1.00
15713;DHT22;7957;51.608;6.916;2023-07-22T02:39:54;16.20;1.00
15713;DHT22;7957;51.608;6.916;2023-07-22T02:42:21;16.20;1.00
15713;DHT22;7957;51.608;6.916;2023-07-22T02:44:48;16.20;1.00
15713;DHT22;7957;51.608;6.916;2023-07-22T02:47:15;16.10;1.00
15713;DHT22;7957;51.608;6.916;2023-07-22T02:49:43;16.20;1.00
15713;DHT22;7957;51.608;6.916;2023-07-22T02:52:10;16.20;1.00
15713;DHT22;7957;51.608;6.916;2023-07-22T02:54:40;16.10;1.00
15713;DHT22;7957;51.608;6.916;2023-07-22T02:57:07;16.20;1.00
15713;DHT22;7957;51.608;6.916;2023-07-22T02:59:34;16.20;1.00
15713;DHT22;7957;51.608;6.916;2023-07-22T03:02:00;16.20;1.00
15713;DHT22;7957;51.608;6.916;2023-07-22T03:04:27;16.20;1.00
15713;DHT22;7957;51.608;6.916;2023-07-22T03:06:56;16.20;1.00
15713;DHT22;7957;51.608;6.916;2023-07-22T03:09:23;16.20;1.00
15713;DHT22;7957;51.608;6.916;2023-07-22T03:11:50;16.20;1.00
15713;DHT22;7957;51.608;6.916;2023-07-22T03:14:17;16.20;1.00
15713;DHT22;7957;51.608;6.916;2023-07-22T03:16:44;16.20;1.00
15713;DHT22;7957;51.608;6.916;2023-07-22T03:19:11;16.20;1.00
15713;DHT22;7957;51.608;6.916;2023-07-22T03:21:38;16.10;1.00
15713;DHT22;7957;51.608;6.916;2023-07-22T03:24:06;16.10;1.00
15713;DHT22;7957;51.608;6.916;2023-07-22T03:26:33;16.10;1.00
15713;DHT22;7957;51.608;6.916;2023-07-22T03:29:00;16.10;1.00
15713;DHT22;7957;51.608;6.916;2023-07-22T03:31:27;16.10;1.00
15713;DHT22;7957;51.608;6.916;2023-07-22T03:33:53;16.10;1.00
15713;DHT22;7957;51.608;6.916;2023-07-22T03:36:21;16.10;1.00
15713;DHT22;7957;51.608;6.916;2023-07-22T03:38:48;16.10;1.00
15713;DHT22;7957;51.608;6.916;2023-07-22T03:41:16;16.10;1.00
15713;DHT22;7957;51.608;6.916;2023-07-22T03:43:43;16.10;1.00
15713;DHT22;7957;51.608;6.916;2023-07-22T03:46:10;16.10;1.00
15713;DHT22;7957;51.608;6.916;2023-07-22T03:48:37;16.10;1.00
15713;DHT22;7957;51.608;6.916;2023-07-22T03:51:04;16.10;1.00
15713;DHT22;7957;51.608;6.916;2023-07-22T03:53:31;16.10;1.00
15713;DHT22;7957;51.608;6.916;2023-07-22T03:55:57;16.00;1.00
15713;DHT22;7957;51.608;6.916;2023-07-22T03:58:27;16.00;1.00
15713;DHT22;7957;51.608;6.916;2023-07-22T04:00:53;16.10;1.00
15713;DHT22;7957;51.608;6.916;2023-07-22T04:03:20;16.00;1.00
15713;DHT22;7957;51.608;6.916;2023-07-22T04:05:53;16.00;1.00
15713;DHT22;7957;51.608;6.916;2023-07-22T04:08:21;16.00;1.00
15713;DHT22;7957;51.608;6.916;2023-07-22T04:10:51;16.00;1.00
15713;DHT22;7957;51.608;6.916;2023-07-22T04:13:19;16.00;1.00
15713;DHT22;7957;51.608;6.916;2023-07-22T04:15:47;16.00;2.00
15713;DHT22;7957;51.608;6.916;2023-07-22T04:18:15;16.00;11.30
15713;DHT22;7957;51.608;6.916;2023-07-22T04:20:42;16.00;16.90
15713;DHT22;7957;51.608;6.916;2023-07-22T04:23:09;16.00;19.70
15713;DHT22;7957;51.608;6.916;2023-07-22T04:25:39;16.00;26.30
15713;DHT22;7957;51.608;6.916;2023-07-22T04:28:06;16.00;35.80
15713;DHT22;7957;51.608;6.916;2023-07-22T04:30:34;16.00;43.30
15713;DHT22;7957;51.608;6.916;2023-07-22T04:33:02;16.00;55.80
15713;DHT22;7957;51.608;6.916;2023-07-22T04:35:31;16.00;60.90
15713;DHT22;7957;51.608;6.916;2023-07-22T04:37:59;16.00;69.80
15713;DHT22;7957;51.608;6.916;2023-07-22T04:40:25;16.00;75.90
15713;DHT22;7957;51.608;6.916;2023-07-22T04:42:52;16.00;85.00
15713;DHT22;7957;51.608;6.916;2023-07-22T04:45:19;16.00;91.50
15713;DHT22;7957;51.608;6.916;2023-07-22T04:47:46;16.00;94.70
15713;DHT22;7957;51.608;6.916;2023-07-22T04:50:16;16.00;97.30
15713;DHT22;7957;51.608;6.916;2023-07-22T04:52:45;16.00;99.90
15713;DHT22;7957;51.608;6.916;2023-07-22T04:55:12;15.90;99.90
15713;DHT22;7957;51.608;6.916;2023-07-22T04:57:40;16.00;99.90
15713;DHT22;7957;51.608;6.916;2023-07-22T05:00:08;16.00;99.90
15713;DHT22;7957;51.608;6.916;2023-07-22T05:02:39;16.00;99.90
15713;DHT22;7957;51.608;6.916;2023-07-22T05:05:06;16.00;99.90
15713;DHT22;7957;51.608;6.916;2023-07-22T05:07:35;15.90;99.90
15713;DHT22;7957;51.608;6.916;2023-07-22T05:10:03;16.00;99.90
15713;DHT22;7957;51.608;6.916;2023-07-22T05:12:30;16.00;99.90
15713;DHT22;7957;51.608;6.916;2023-07-22T05:14:56;16.00;99.90
15713;DHT22;7957;51.608;6.916;2023-07-22T05:17:23;16.00;99.90
15713;DHT22;7957;51.608;6.916;2023-07-22T05:19:51;16.00;99.90
15713;DHT22;7957;51.608;6.916;2023-07-22T05:22:17;16.00;99.90
15713;DHT22;7957;51.608;6.916;2023-07-22T05:24:46;16.00;99.90
15713;DHT22;7957;51.608;6.916;2023-07-22T05:27:13;16.00;99.90
15713;DHT22;7957;51.608;6.916;2023-07-22T05:29:40;16.00;99.90
15713;DHT22;7957;51.608;6.916;2023-07-22T05:32:08;16.10;99.90
15713;DHT22;7957;51.608;6.916;2023-07-22T05:34:35;16.00;99.90
15713;DHT22;7957;51.608;6.916;2023-07-22T05:37:05;16.10;99.90
15713;DHT22;7957;51.608;6.916;2023-07-22T05:39:32;16.10;99.90
15713;DHT22;7957;51.608;6.916;2023-07-22T05:42:00;16.10;99.90
15713;DHT22;7957;51.608;6.916;2023-07-22T05:44:27;16.10;99.90
15713;DHT22;7957;51.608;6.916;2023-07-22T05:46:54;16.20;99.90
15713;DHT22;7957;51.608;6.916;2023-07-22T05:49:21;16.20;99.90
15713;DHT22;7957;51.608;6.916;2023-07-22T05:51:48;16.20;99.90
15713;DHT22;7957;51.608;6.916;2023-07-22T05:54:15;16.30;99.90
15713;DHT22;7957;51.608;6.916;2023-07-22T05:56:42;16.30;99.90
15713;DHT22;7957;51.608;6.916;2023-07-22T05:59:10;16.40;99.90
15713;DHT22;7957;51.608;6.916;2023-07-22T06:01:37;16.40;99.90
15713;DHT22;7957;51.608;6.916;2023-07-22T06:04:04;16.40;99.90
15713;DHT22;7957;51.608;6.916;2023-07-22T06:06:31;16.40;99.90
15713;DHT22;7957;51.608;6.916;2023-07-22T06:08:59;16.40;99.90
15713;DHT22;7957;51.608;6.916;2023-07-22T06:11:28;16.40;99.90
15713;DHT22;7957;51.608;6.916;2023-07-22T06:13:55;16.40;99.90
15713;DHT22;7957;51.608;6.916;2023-07-22T06:16:23;16.40;99.90
15713;DHT22;7957;51.608;6.916;2023-07-22T06:18:50;16.40;99.90
15713;DHT22;7957;51.608;6.916;2023-07-22T06:21:17;16.40;99.90
15713;DHT22;7957;51.608;6.916;2023-07-22T06:23:44;16.40;99.90
15713;DHT22;7957;51.608;6.916;2023-07-22T06:26:10;16.40;99.90
15713;DHT22;7957;51.608;6.916;2023-07-22T06:28:37;16.40;99.90
15713;DHT22;7957;51.608;6.916;2023-07-22T06:31:04;16.40;99.90
15713;DHT22;7957;51.608;6.916;2023-07-22T06:33:33;16.50;99.90
15713;DHT22;7957;51.608;6.916;2023-07-22T06:36:01;16.50;99.90
15713;DHT22;7957;51.608;6.916;2023-07-22T06:38:28;16.50;99.90
15713;DHT22;7957;51.608;6.916;2023-07-22T06:40:55;16.60;99.90
15713;DHT22;7957;51.608;6.916;2023-07-22T06:43:22;16.50;99.90
15713;DHT22;7957;51.608;6.916;2023-07-22T06:45:49;16.60;99.90
15713;DHT22;7957;51.608;6.916;2023-07-22T06:48:16;16.60;99.90
15713;DHT22;7957;51.608;6.916;2023-07-22T06:50:48;16.60;99.90
15713;DHT22;7957;51.608;6.916;2023-07-22T06:53:15;16.60;99.90
15713;DHT22;7957;51.608;6.916;2023-07-22T06:55:49;16.70;99.90
15713;DHT22;7957;51.608;6.916;2023-07-22T06:58:16;16.70;99.90
15713;DHT22;7957;51.608;6.916;2023-07-22T07:00:43;16.70;99.90
15713;DHT22;7957;51.608;6.916;2023-07-22T07:03:10;16.70;99.90
15713;DHT22;7957;51.608;6.916;2023-07-22T07:05:37;16.70;99.90
15713;DHT22;7957;51.608;6.916;2023-07-22T07:08:08;16.70;99.90
15713;DHT22;7957;51.608;6.916;2023-07-22T07:10:39;16.80;99.90
15713;DHT22;7957;51.608;6.916;2023-07-22T07:13:06;16.80;99.90
15713;DHT22;7957;51.608;6.916;2023-07-22T07:15:32;16.80;99.90
15713;DHT22;7957;51.608;6.916;2023-07-22T07:17:59;16.80;98.90
15713;DHT22;7957;51.608;6.916;2023-07-22T07:20:26;16.90;99.90
15713;DHT22;7957;51.608;6.916;2023-07-22T07:22:53;16.90;99.90
15713;DHT22;7957;51.608;6.916;2023-07-22T07:25:22;16.90;99.90
15713;DHT22;7957;51.608;6.916;2023-07-22T07:27:49;17.00;99.90
15713;DHT22;7957;51.608;6.916;2023-07-22T07:30:16;17.00;99.90
15713;DHT22;7957;51.608;6.916;2023-07-22T07:32:43;17.10;99.90
15713;DHT22;7957;51.608;6.916;2023-07-22T07:35:10;17.10;99.90
15713;DHT22;7957;51.608;6.916;2023-07-22T07:37:37;17.20;99.90
15713;DHT22;7957;51.608;6.916;2023-07-22T07:40:05;17.30;99.90
15713;DHT22;7957;51.608;6.916;2023-07-22T07:42:35;17.40;99.90
15713;DHT22;7957;51.608;6.916;2023-07-22T07:45:02;17.50;99.90
15713;DHT22;7957;51.608;6.916;2023-07-22T07:47:29;17.60;99.90
15713;DHT22;7957;51.608;6.916;2023-07-22T07:49:59;17.60;99.90
15713;DHT22;7957;51.608;6.916;2023-07-22T07:52:25;17.70;99.90
15713;DHT22;7957;51.608;6.916;2023-07-22T07:54:52;17.80;68.00
15713;DHT22;7957;51.608;6.916;2023-07-22T07:57:19;17.90;45.50
15713;DHT22;7957;51.608;6.916;2023-07-22T07:59:48;17.90;37.00
15713;DHT22;7957;51.608;6.916;2023-07-22T08:02:15;18.00;14.50
15713;DHT22;7957;51.608;6.916;2023-07-22T08:04:41;18.10;1.00
15713;DHT22;7957;51.608;6.916;2023-07-22T08:07:16;18.10;1.00
15713;DHT22;7957;51.608;6.916;2023-07-22T08:09:46;18.20;1.00
15713;DHT22;7957;51.608;6.916;2023-07-22T08:12:15;18.30;1.00
15713;DHT22;7957;51.608;6.916;2023-07-22T08:14:42;18.30;1.00
15713;DHT22;7957;51.608;6.916;2023-07-22T08:17:10;18.40;1.00
15713;DHT22;7957;51.608;6.916;2023-07-22T08:19:37;18.40;1.00
15713;DHT22;7957;51.608;6.916;2023-07-22T08:22:05;18.40;1.00
15713;DHT22;7957;51.608;6.916;2023-07-22T08:24:32;18.50;1.00
15713;DHT22;7957;51.608;6.916;2023-07-22T08:26:59;18.50;1.00
15713;DHT22;7957;51.608;6.916;2023-07-22T08:29:25;18.60;1.00
15713;DHT22;7957;51.608;6.916;2023-07-22T08:31:52;18.60;1.00
15713;DHT22;7957;51.608;6.916;2023-07-22T08:34:21;18.60;1.00
15713;DHT22;7957;51.608;6.916;2023-07-22T08:36:48;18.70;1.00
15713;DHT22;7957;51.608;6.916;2023-07-22T08:39:15;18.70;1.00
15713;DHT22;7957;51.608;6.916;2023-07-22T08:41:47;18.70;1.00
15713;DHT22;7957;51.608;6.916;2023-07-22T08:44:18;18.70;1.00
15713;DHT22;7957;51.608;6.916;2023-07-22T08:46:47;18.80;1.00
15713;DHT22;7957;51.608;6.916;2023-07-22T08:49:16;18.80;1.00
15713;DHT22;7957;51.608;6.916;2023-07-22T08:51:45;18.90;1.00
15713;DHT22;7957;51.608;6.916;2023-07-22T08:54:13;18.90;1.00
15713;DHT22;7957;51.608;6.916;2023-07-22T08:56:41;19.00;1.00
15713;DHT22;7957;51.608;6.916;2023-07-22T08:59:09;19.00;1.00
15713;DHT22;7957;51.608;6.916;2023-07-22T09:01:37;19.10;1.00
15713;DHT22;7957;51.608;6.916;2023-07-22T09:04:05;19.10;99.90
15713;DHT22;7957;51.608;6.916;2023-07-22T09:06:33;19.10;99.90
15713;DHT22;7957;51.608;6.916;2023-07-22T09:09:03;19.20;99.90
15713;DHT22;7957;51.608;6.916;2023-07-22T09:11:34;19.30;99.90
15713;DHT22;7957;51.608;6.916;2023-07-22T09:14:02;19.40;99.90
15713;DHT22;7957;51.608;6.916;2023-07-22T09:16:30;19.50;99.90
15713;DHT22;7957;51.608;6.916;2023-07-22T09:18:58;19.60;99.90
15713;DHT22;7957;51.608;6.916;2023-07-22T09:21:25;19.60;99.90
15713;DHT22;7957;51.608;6.916;2023-07-22T09:23:55;19.70;99.90
15713;DHT22;7957;51.608;6.916;2023-07-22T09:26:24;19.70;99.90
15713;DHT22;7957;51.608;6.916;2023-07-22T09:28:52;19.80;99.90
15713;DHT22;7957;51.608;6.916;2023-07-22T09:31:20;19.90;99.90
15713;DHT22;7957;51.608;6.916;2023-07-22T09:33:47;20.00;99.90
15713;DHT22;7957;51.608;6.916;2023-07-22T09:36:15;20.10;99.90
15713;DHT22;7957;51.608;6.916;2023-07-22T09:38:42;20.10;99.90
15713;DHT22;7957;51.608;6.916;2023-07-22T09:41:09;20.10;99.90
15713;DHT22;7957;51.608;6.916;2023-07-22T09:43:40;20.10;99.90
15713;DHT22;7957;51.608;6.916;2023-07-22T09:46:08;20.10;99.90
15713;DHT22;7957;51.608;6.916;2023-07-22T09:48:42;20.20;99.90
15713;DHT22;7957;51.608;6.916;2023-07-22T09:51:14;20.30;99.90
15713;DHT22;7957;51.608;6.916;2023-07-22T09:53:45;20.40;94.80
15713;DHT22;7957;51.608;6.916;2023-07-22T09:56:12;20.50;64.30
15713;DHT22;7957;51.608;6.916;2023-07-22T09:58:43;20.50;42.30
15713;DHT22;7957;51.608;6.916;2023-07-22T10:01:12;20.60;17.90
15713;DHT22;7957;51.608;6.916;2023-07-22T10:03:45;20.70;19.00
15713;DHT22;7957;51.608;6.916;2023-07-22T10:06:14;20.90;24.60
15713;DHT22;7957;51.608;6.916;2023-07-22T10:08:44;21.10;3.20
15713;DHT22;7957;51.608;6.916;2023-07-22T10:11:12;21.20;1.00
15713;DHT22;7957;51.608;6.916;2023-07-22T10:13:41;21.40;1.00
15713;DHT22;7957;51.608;6.916;2023-07-22T10:16:08;21.50;1.00
15713;DHT22;7957;51.608;6.916;2023-07-22T10:18:35;21.50;1.00
15713;DHT22;7957;51.608;6.916;2023-07-22T10:21:03;21.60;1.00
15713;DHT22;7957;51.608;6.916;2023-07-22T10:23:31;21.50;1.00
15713;DHT22;7957;51.608;6.916;2023-07-22T10:25:59;21.50;1.00
15713;DHT22;7957;51.608;6.916;2023-07-22T10:28:26;21.60;1.00
15713;DHT22;7957;51.608;6.916;2023-07-22T10:30:56;21.60;1.00
15713;DHT22;7957;51.608;6.916;2023-07-22T10:33:24;21.70;1.00
15713;DHT22;7957;51.608;6.916;2023-07-22T10:36:05;21.80;1.00
15713;DHT22;7957;51.608;6.916;2023-07-22T10:38:33;21.90;1.00
15713;DHT22;7957;51.608;6.916;2023-07-22T10:41:01;21.90;1.00
15713;DHT22;7957;51.608;6.916;2023-07-22T10:43:32;21.90;1.00
15713;DHT22;7957;51.608;6.916;2023-07-22T10:46:07;22.00;1.00
15713;DHT22;7957;51.608;6.916;2023-07-22T10:48:36;22.00;1.00
15713;DHT22;7957;51.608;6.916;2023-07-22T10:51:06;22.10;1.00
15713;DHT22;7957;51.608;6.916;2023-07-22T10:53:40;22.10;1.00
15713;DHT22;7957;51.608;6.916;2023-07-22T10:56:13;22.20;1.00
15713;DHT22;7957;51.608;6.916;2023-07-22T10:58:58;22.30;1.00
15713;DHT22;7957;51.608;6.916;2023-07-22T11:01:33;22.20;1.00
15713;DHT22;7957;51.608;6.916;2023-07-22T11:04:22;22.30;1.00
15713;DHT22;7957;51.608;6.916;2023-07-22T11:06:57;22.40;99.90
15713;DHT22;7957;51.608;6.916;2023-07-22T11:09:35;22.50;99.90
15713;DHT22;7957;51.608;6.916;2023-07-22T11:12:04;22.60;99.90
15713;DHT22;7957;51.608;6.916;2023-07-22T11:14:34;22.60;99.90
15713;DHT22;7957;51.608;6.916;2023-07-22T11:17:04;22.60;99.90
15713;DHT22;7957;51.608;6.916;2023-07-22T11:19:32;22.60;99.90
15713;DHT22;7957;51.608;6.916;2023-07-22T11:21:59;22.70;99.90
15713;DHT22;7957;51.608;6.916;2023-07-22T11:24:27;22.90;99.90
15713;DHT22;7957;51.608;6.916;2023-07-22T11:26:54;23.00;99.90
15713;DHT22;7957;51.608;6.916;2023-07-22T11:29:21;23.20;99.90
15713;DHT22;7957;51.608;6.916;2023-07-22T11:31:50;23.20;99.90
15713;DHT22;7957;51.608;6.916;2023-07-22T11:34:22;23.20;99.90
15713;DHT22;7957;51.608;6.916;2023-07-22T11:36:51;23.30;99.90
15713;DHT22;7957;51.608;6.916;2023-07-22T11:39:20;23.30;99.90
15713;DHT22;7957;51.608;6.916;2023-07-22T11:41:50;23.30;99.90
15713;DHT22;7957;51.608;6.916;2023-07-22T11:44:19;23.50;99.90
15713;DHT22;7957;51.608;6.916;2023-07-22T11:46:52;23.60;99.90
15713;DHT22;7957;51.608;6.916;2023-07-22T11:49:37;23.60;99.50
15713;DHT22;7957;51.608;6.916;2023-07-22T11:52:06;23.50;69.50
15713;DHT22;7957;51.608;6.916;2023-07-22T11:54:39;23.60;57.60
15713;DHT22;7957;51.608;6.916;2023-07-22T11:57:12;23.70;42.70
15713;DHT22;7957;51.608;6.916;2023-07-22T11:59:44;23.80;21.10
15713;DHT22;7957;51.608;6.916;2023-07-22T12:02:13;23.90;1.00
15713;DHT22;7957;51.608;6.916;2023-07-22T12:04:42;23.80;1.00
15713;DHT22;7957;51.608;6.916;2023-07-22T12:07:21;23.80;1.00
15713;DHT22;7957;51.608;6.916;2023-07-22T12:09:48;23.70;1.00
15713;DHT22;7957;51.608;6.916;2023-07-22T12:12:15;23.70;1.00
15713;DHT22;7957;51.608;6.916;2023-07-22T12:14:42;23.50;1.00
15713;DHT22;7957;51.608;6.916;2023-07-22T12:17:09;23.50;1.00
15713;DHT22;7957;51.608;6.916;2023-07-22T12:19:36;23.40;1.00
15713;DHT22;7957;51.608;6.916;2023-07-22T12:22:04;23.30;1.00
15713;DHT22;7957;51.608;6.916;2023-07-22T12:24:32;23.30;1.00
15713;DHT22;7957;51.608;6.916;2023-07-22T12:27:00;23.30;1.00
15713;DHT22;7957;51.608;6.916;2023-07-22T12:29:27;23.30;1.00
15713;DHT22;7957;51.608;6.916;2023-07-22T12:31:54;23.40;1.00
15713;DHT22;7957;51.608;6.916;2023-07-22T12:34:21;23.50;1.00
15713;DHT22;7957;51.608;6.916;2023-07-22T12:36:47;23.50;1.00
15713;DHT22;7957;51.608;6.916;2023-07-22T12:39:16;23.50;1.00
15713;DHT22;7957;51.608;6.916;2023-07-22T12:41:42;23.40;1.00
15713;DHT22;7957;51.608;6.916;2023-07-22T12:44:09;23.40;1.00
15713;DHT22;7957;51.608;6.916;2023-07-22T12:46:36;23.30;1.00
15713;DHT22;7957;51.608;6.916;2023-07-22T12:49:03;23.30;1.00
15713;DHT22;7957;51.608;6.916;2023-07-22T12:51:31;23.40;1.00
15713;DHT22;7957;51.608;6.916;2023-07-22T12:53:59;23.40;1.00
15713;DHT22;7957;51.608;6.916;2023-07-22T12:56:27;23.60;1.00
15713;DHT22;7957;51.608;6.916;2023-07-22T12:58:54;23.70;1.00
15713;DHT22;7957;51.608;6.916;2023-07-22T13:01:20;23.90;1.00
15713;DHT22;7957;51.608;6.916;2023-07-22T13:03:47;24.00;1.00
15713;DHT22;7957;51.608;6.916;2023-07-22T13:06:14;24.10;1.00
15713;DHT22;7957;51.608;6.916;2023-07-22T13:08:42;24.00;1.00
15713;DHT22;7957;51.608;6.916;2023-07-22T13:11:09;24.10;1.00
15713;DHT22;7957;51.608;6.916;2023-07-22T13:13:39;24.20;1.00
15713;DHT22;7957;51.608;6.916;2023-07-22T13:16:06;24.20;1.00
15713;DHT22;7957;51.608;6.916;2023-07-22T13:18:33;24.20;1.00
15713;DHT22;7957;51.608;6.916;2023-07-22T13:20:59;24.10;99.90
15713;DHT22;7957;51.608;6.916;2023-07-22T13:23:26;24.00;99.90
15713;DHT22;7957;51.608;6.916;2023-07-22T13:25:53;23.90;99.90
15713;DHT22;7957;51.608;6.916;2023-07-22T13:28:21;23.90;99.90
15713;DHT22;7957;51.608;6.916;2023-07-22T13:30:49;23.90;99.90
15713;DHT22;7957;51.608;6.916;2023-07-22T13:33:16;24.00;99.90
15713;DHT22;7957;51.608;6.916;2023-07-22T13:35:43;24.00;99.90
15713;DHT22;7957;51.608;6.916;2023-07-22T13:38:11;24.00;99.90
15713;DHT22;7957;51.608;6.916;2023-07-22T13:40:38;24.00;99.90
15713;DHT22;7957;51.608;6.916;2023-07-22T13:43:05;24.10;99.90
15713;DHT22;7957;51.608;6.916;2023-07-22T13:45:32;24.10;99.90
15713;DHT22;7957;51.608;6.916;2023-07-22T13:48:01;24.10;99.90
15713;DHT22;7957;51.608;6.916;2023-07-22T13:50:27;24.20;99.90
15713;DHT22;7957;51.608;6.916;2023-07-22T13:52:54;24.30;99.90
15713;DHT22;7957;51.608;6.916;2023-07-22T13:55:21;24.40;99.90
15713;DHT22;7957;51.608;6.916;2023-07-22T13:57:48;24.50;99.90
15713;DHT22;7957;51.608;6.916;2023-07-22T14:00:15;24.70;99.90
15713;DHT22;7957;51.608;6.916;2023-07-22T14:02:42;24.70;99.90
15713;DHT22;7957;51.608;6.916;2023-07-22T14:05:11;24.70;99.90
15713;DHT22;7957;51.608;6.916;2023-07-22T14:07:38;24.90;99.90
15713;DHT22;7957;51.608;6.916;2023-07-22T14:10:06;25.10;99.90
15713;DHT22;7957;51.608;6.916;2023-07-22T14:12:34;25.10;99.90
15713;DHT22;7957;51.608;6.916;2023-07-22T14:15:01;25.00;99.90
15713;DHT22;7957;51.608;6.916;2023-07-22T14:17:29;25.10;99.90
15713;DHT22;7957;51.608;6.916;2023-07-22T14:19:57;25.20;99.90
15713;DHT22;7957;51.608;6.916;2023-07-22T14:22:26;25.20;99.90
15713;DHT22;7957;51.608;6.916;2023-07-22T14:24:52;25.10;99.90
15713;DHT22;7957;51.608;6.916;2023-07-22T14:27:19;25.10;99.90
15713;DHT22;7957;51.608;6.916;2023-07-22T14:29:46;25.10;99.90
15713;DHT22;7957;51.608;6.916;2023-07-22T14:32:13;25.10;99.90
15713;DHT22;7957;51.608;6.916;2023-07-22T14:34:42;25.10;99.90
15713;DHT22;7957;51.608;6.916;2023-07-22T14:37:08;25.10;99.90
15713;DHT22;7957;51.608;6.916;2023-07-22T14:39:37;25.00;99.90
15713;DHT22;7957;51.608;6.916;2023-07-22T14:42:04;24.80;99.90
15713;DHT22;7957;51.608;6.916;2023-07-22T14:44:31;24.70;99.90
15713;DHT22;7957;51.608;6.916;2023-07-22T14:46:58;24.70;99.90
15713;DHT22;7957;51.608;6.916;2023-07-22T14:49:26;24.60;95.90
15713;DHT22;7957;51.608;6.916;2023-07-22T14:51:53;24.60;89.50
15713;DHT22;7957;51.608;6.916;2023-07-22T14:54:19;24.70;91.20
15713;DHT22;7957;51.608;6.916;2023-07-22T14:56:48;24.70;77.00
15713;DHT22;7957;51.608;6.916;2023-07-22T14:59:16;24.70;63.00
15713;DHT22;7957;51.608;6.916;2023-07-22T15:01:43;24.70;66.10
15713;DHT22;7957;51.608;6.916;2023-07-22T15:04:10;24.70;49.00
15713;DHT22;7957;51.608;6.916;2023-07-22T15:06:36;24.70;34.60
15713;DHT22;7957;51.608;6.916;2023-07-22T15:09:04;24.70;36.90
15713;DHT22;7957;51.608;6.916;2023-07-22T15:11:34;24.80;34.40
15713;DHT22;7957;51.608;6.916;2023-07-22T15:14:02;24.90;24.50
15713;DHT22;7957;51.608;6.916;2023-07-22T15:16:29;24.80;7.70
15713;DHT22;7957;51.608;6.916;2023-07-22T15:18:57;24.90;1.00
15713;DHT22;7957;51.608;6.916;2023-07-22T15:21:24;24.80;1.00
15713;DHT22;7957;51.608;6.916;2023-07-22T15:23:52;24.60;1.00
15713;DHT22;7957;51.608;6.916;2023-07-22T15:26:19;24.60;1.00
15713;DHT22;7957;51.608;6.916;2023-07-22T15:28:46;24.60;1.00
15713;DHT22;7957;51.608;6.916;2023-07-22T15:31:16;24.60;1.00
15713;DHT22;7957;51.608;6.916;2023-07-22T15:33:44;24.60;1.00
15713;DHT22;7957;51.608;6.916;2023-07-22T15:36:11;24.60;1.00
15713;DHT22;7957;51.608;6.916;2023-07-22T15:38:37;24.60;1.00
15713;DHT22;7957;51.608;6.916;2023-07-22T15:41:04;24.70;1.00
15713;DHT22;7957;51.608;6.916;2023-07-22T15:43:31;24.60;1.00
15713;DHT22;7957;51.608;6.916;2023-07-22T15:45:58;24.50;1.00
15713;DHT22;7957;51.608;6.916;2023-07-22T15:48:28;24.50;1.00
15713;DHT22;7957;51.608;6.916;2023-07-22T15:50:55;24.40;1.00
15713;DHT22;7957;51.608;6.916;2023-07-22T15:53:21;24.40;1.00
15713;DHT22;7957;51.608;6.916;2023-07-22T15:55:49;24.30;1.00
15713;DHT22;7957;51.608;6.916;2023-07-22T15:58:16;24.30;1.00